sensor_id;sensor_type;location;lat;lon;timestamp;P1;durP1;ratioP1;P2;durP2;ratioP2
37529;SDS011;23374;52.758;6.872;2023-03-19T00:01:35;14.47;;;9.43;;
37529;SDS011;23374;52.758;6.872;2023-03-19T00:03:56;18.87;;;9.23;;
37529;SDS011;23374;52.758;6.872;2023-03-19T00:06:17;14.77;;;9.80;;
37529;SDS011;23374;52.758;6.872;2023-03-19T00:08:38;16.83;;;9.50;;
37529;SDS011;23374;52.758;6.872;2023-03-19T00:10:58;16.43;;;9.23;;
37529;SDS011;23374;52.758;6.872;2023-03-19T00:13:26;17.57;;;9.53;;
37529;SDS011;23374;52.758;6.872;2023-03-19T00:15:46;16.10;;;9.57;;
37529;SDS011;23374;52.758;6.872;2023-03-19T00:18:06;15.97;;;9.60;;
37529;SDS011;23374;52.758;6.872;2023-03-19T00:20:27;16.73;;;9.83;;
37529;SDS011;23374;52.758;6.872;2023-03-19T00:22:47;14.83;;;9.23;;
37529;SDS011;23374;52.758;6.872;2023-03-19T00:25:07;18.07;;;10.47;;
37529;SDS011;23374;52.758;6.872;2023-03-19T00:27:28;18.07;;;11.10;;
37529;SDS011;23374;52.758;6.872;2023-03-19T00:29:49;15.10;;;10.13;;
37529;SDS011;23374;52.758;6.872;2023-03-19T00:32:10;17.20;;;10.33;;
37529;SDS011;23374;52.758;6.872;2023-03-19T00:34:30;15.03;;;10.27;;
37529;SDS011;23374;52.758;6.872;2023-03-19T00:36:50;16.27;;;9.57;;
37529;SDS011;23374;52.758;6.872;2023-03-19T00:39:11;16.07;;;9.77;;
37529;SDS011;23374;52.758;6.872;2023-03-19T00:41:31;16.57;;;9.53;;
37529;SDS011;23374;52.758;6.872;2023-03-19T00:43:55;14.90;;;9.53;;
37529;SDS011;23374;52.758;6.872;2023-03-19T00:46:17;18.03;;;10.43;;
37529;SDS011;23374;52.758;6.872;2023-03-19T00:48:37;18.83;;;10.40;;
37529;SDS011;23374;52.758;6.872;2023-03-19T00:51:06;16.20;;;9.57;;
37529;SDS011;23374;52.758;6.872;2023-03-19T00:53:28;16.37;;;9.50;;
37529;SDS011;23374;52.758;6.872;2023-03-19T00:55:48;17.00;;;9.73;;
37529;SDS011;23374;52.758;6.872;2023-03-19T00:58:09;15.73;;;9.57;;
37529;SDS011;23374;52.758;6.872;2023-03-19T01:00:30;14.10;;;9.47;;
37529;SDS011;23374;52.758;6.872;2023-03-19T01:02:51;17.90;;;9.60;;
37529;SDS011;23374;52.758;6.872;2023-03-19T01:05:12;18.50;;;9.97;;
37529;SDS011;23374;52.758;6.872;2023-03-19T01:07:32;18.67;;;9.83;;
37529;SDS011;23374;52.758;6.872;2023-03-19T01:09:53;16.53;;;10.17;;
37529;SDS011;23374;52.758;6.872;2023-03-19T01:12:13;15.37;;;10.13;;
37529;SDS011;23374;52.758;6.872;2023-03-19T01:14:34;16.90;;;9.90;;
37529;SDS011;23374;52.758;6.872;2023-03-19T01:16:54;17.40;;;10.87;;
37529;SDS011;23374;52.758;6.872;2023-03-19T01:19:15;17.27;;;10.70;;
37529;SDS011;23374;52.758;6.872;2023-03-19T01:21:36;16.53;;;10.83;;
37529;SDS011;23374;52.758;6.872;2023-03-19T01:23:57;17.83;;;10.03;;
37529;SDS011;23374;52.758;6.872;2023-03-19T01:26:19;19.83;;;10.57;;
37529;SDS011;23374;52.758;6.872;2023-03-19T01:28:40;18.23;;;10.10;;
37529;SDS011;23374;52.758;6.872;2023-03-19T01:31:01;17.43;;;10.90;;
37529;SDS011;23374;52.758;6.872;2023-03-19T01:33:26;19.50;;;10.90;;
37529;SDS011;23374;52.758;6.872;2023-03-19T01:35:47;17.30;;;10.40;;
37529;SDS011;23374;52.758;6.872;2023-03-19T01:38:08;18.40;;;9.60;;
37529;SDS011;23374;52.758;6.872;2023-03-19T01:40:28;16.00;;;9.50;;
37529;SDS011;23374;52.758;6.872;2023-03-19T01:43:42;15.33;;;9.73;;
37529;SDS011;23374;52.758;6.872;2023-03-19T01:46:35;17.13;;;9.50;;
37529;SDS011;23374;52.758;6.872;2023-03-19T01:48:59;14.17;;;8.97;;
37529;SDS011;23374;52.758;6.872;2023-03-19T01:51:25;16.30;;;9.20;;
37529;SDS011;23374;52.758;6.872;2023-03-19T01:53:56;13.17;;;8.73;;
37529;SDS011;23374;52.758;6.872;2023-03-19T01:56:21;16.80;;;8.97;;
37529;SDS011;23374;52.758;6.872;2023-03-19T01:58:47;14.87;;;9.50;;
37529;SDS011;23374;52.758;6.872;2023-03-19T02:01:12;14.47;;;9.07;;
37529;SDS011;23374;52.758;6.872;2023-03-19T02:03:33;13.17;;;8.50;;
37529;SDS011;23374;52.758;6.872;2023-03-19T02:05:56;14.30;;;8.67;;
37529;SDS011;23374;52.758;6.872;2023-03-19T02:08:19;16.10;;;8.93;;
37529;SDS011;23374;52.758;6.872;2023-03-19T02:10:42;14.63;;;8.37;;
37529;SDS011;23374;52.758;6.872;2023-03-19T02:13:06;12.57;;;7.57;;
37529;SDS011;23374;52.758;6.872;2023-03-19T02:15:27;11.87;;;8.17;;
37529;SDS011;23374;52.758;6.872;2023-03-19T02:17:48;13.40;;;8.23;;
37529;SDS011;23374;52.758;6.872;2023-03-19T02:22:55;11.50;;;7.30;;
37529;SDS011;23374;52.758;6.872;2023-03-19T02:25:41;10.77;;;6.23;;
37529;SDS011;23374;52.758;6.872;2023-03-19T02:28:51;10.90;;;6.27;;
37529;SDS011;23374;52.758;6.872;2023-03-19T02:31:12;12.00;;;5.87;;
37529;SDS011;23374;52.758;6.872;2023-03-19T02:33:34;9.87;;;5.17;;
37529;SDS011;23374;52.758;6.872;2023-03-19T02:35:55;9.63;;;5.50;;
37529;SDS011;23374;52.758;6.872;2023-03-19T02:38:18;8.43;;;5.50;;
37529;SDS011;23374;52.758;6.872;2023-03-19T02:43:13;7.40;;;5.70;;
37529;SDS011;23374;52.758;6.872;2023-03-19T02:45:34;9.73;;;5.43;;
37529;SDS011;23374;52.758;6.872;2023-03-19T02:47:55;7.80;;;5.30;;
37529;SDS011;23374;52.758;6.872;2023-03-19T02:50:15;8.83;;;5.30;;
37529;SDS011;23374;52.758;6.872;2023-03-19T02:52:36;8.30;;;5.47;;
37529;SDS011;23374;52.758;6.872;2023-03-19T02:54:56;7.87;;;4.90;;
37529;SDS011;23374;52.758;6.872;2023-03-19T02:57:16;8.10;;;4.70;;
37529;SDS011;23374;52.758;6.872;2023-03-19T02:59:37;7.23;;;5.03;;
37529;SDS011;23374;52.758;6.872;2023-03-19T03:01:58;7.30;;;4.50;;
37529;SDS011;23374;52.758;6.872;2023-03-19T03:04:18;7.10;;;4.30;;
37529;SDS011;23374;52.758;6.872;2023-03-19T03:06:48;8.57;;;4.70;;
37529;SDS011;23374;52.758;6.872;2023-03-19T03:09:09;7.60;;;4.87;;
37529;SDS011;23374;52.758;6.872;2023-03-19T03:11:31;5.37;;;4.23;;
37529;SDS011;23374;52.758;6.872;2023-03-19T03:13:52;9.57;;;5.07;;
37529;SDS011;23374;52.758;6.872;2023-03-19T03:16:12;5.80;;;3.90;;
37529;SDS011;23374;52.758;6.872;2023-03-19T03:18:34;6.27;;;3.83;;
37529;SDS011;23374;52.758;6.872;2023-03-19T03:20:55;7.03;;;4.53;;
37529;SDS011;23374;52.758;6.872;2023-03-19T03:23:15;5.77;;;4.27;;
37529;SDS011;23374;52.758;6.872;2023-03-19T03:25:36;5.03;;;3.77;;
37529;SDS011;23374;52.758;6.872;2023-03-19T03:27:56;6.60;;;4.97;;
37529;SDS011;23374;52.758;6.872;2023-03-19T03:30:18;6.90;;;4.37;;
37529;SDS011;23374;52.758;6.872;2023-03-19T03:32:39;8.80;;;3.70;;
37529;SDS011;23374;52.758;6.872;2023-03-19T03:35:00;6.27;;;3.67;;
37529;SDS011;23374;52.758;6.872;2023-03-19T03:37:21;5.67;;;3.70;;
37529;SDS011;23374;52.758;6.872;2023-03-19T03:39:41;5.07;;;3.30;;
37529;SDS011;23374;52.758;6.872;2023-03-19T03:42:02;5.27;;;3.57;;
37529;SDS011;23374;52.758;6.872;2023-03-19T03:44:24;5.37;;;3.57;;
37529;SDS011;23374;52.758;6.872;2023-03-19T03:46:44;5.53;;;3.07;;
37529;SDS011;23374;52.758;6.872;2023-03-19T03:49:05;5.87;;;3.40;;
37529;SDS011;23374;52.758;6.872;2023-03-19T03:51:26;6.00;;;3.17;;
37529;SDS011;23374;52.758;6.872;2023-03-19T03:53:53;4.03;;;2.80;;
37529;SDS011;23374;52.758;6.872;2023-03-19T03:56:14;4.10;;;2.50;;
37529;SDS011;23374;52.758;6.872;2023-03-19T03:58:40;4.70;;;3.23;;
37529;SDS011;23374;52.758;6.872;2023-03-19T04:01:01;4.57;;;2.40;;
37529;SDS011;23374;52.758;6.872;2023-03-19T04:03:21;3.60;;;2.50;;
37529;SDS011;23374;52.758;6.872;2023-03-19T04:05:43;4.87;;;2.53;;
37529;SDS011;23374;52.758;6.872;2023-03-19T04:08:05;6.03;;;3.10;;
37529;SDS011;23374;52.758;6.872;2023-03-19T04:10:27;4.70;;;2.60;;
37529;SDS011;23374;52.758;6.872;2023-03-19T04:12:48;7.57;;;3.10;;
37529;SDS011;23374;52.758;6.872;2023-03-19T04:15:10;3.97;;;2.33;;
37529;SDS011;23374;52.758;6.872;2023-03-19T04:17:31;3.30;;;2.27;;
37529;SDS011;23374;52.758;6.872;2023-03-19T04:19:52;4.37;;;2.27;;
37529;SDS011;23374;52.758;6.872;2023-03-19T04:22:13;3.83;;;2.50;;
37529;SDS011;23374;52.758;6.872;2023-03-19T04:24:33;3.67;;;2.13;;
37529;SDS011;23374;52.758;6.872;2023-03-19T04:26:54;4.40;;;2.90;;
37529;SDS011;23374;52.758;6.872;2023-03-19T04:29:15;4.50;;;3.30;;
37529;SDS011;23374;52.758;6.872;2023-03-19T04:31:36;5.50;;;2.93;;
37529;SDS011;23374;52.758;6.872;2023-03-19T04:33:56;4.60;;;2.77;;
37529;SDS011;23374;52.758;6.872;2023-03-19T04:36:17;5.23;;;2.90;;
37529;SDS011;23374;52.758;6.872;2023-03-19T04:38:38;5.37;;;3.50;;
37529;SDS011;23374;52.758;6.872;2023-03-19T04:42:22;4.87;;;2.80;;
37529;SDS011;23374;52.758;6.872;2023-03-19T04:44:43;4.57;;;3.13;;
37529;SDS011;23374;52.758;6.872;2023-03-19T04:47:04;4.30;;;2.80;;
37529;SDS011;23374;52.758;6.872;2023-03-19T04:49:25;4.77;;;3.30;;
37529;SDS011;23374;52.758;6.872;2023-03-19T04:51:46;4.40;;;2.57;;
37529;SDS011;23374;52.758;6.872;2023-03-19T04:54:06;4.80;;;3.00;;
37529;SDS011;23374;52.758;6.872;2023-03-19T04:56:28;5.23;;;3.17;;
37529;SDS011;23374;52.758;6.872;2023-03-19T04:58:49;8.40;;;2.97;;
37529;SDS011;23374;52.758;6.872;2023-03-19T05:01:10;6.47;;;3.00;;
37529;SDS011;23374;52.758;6.872;2023-03-19T05:03:31;3.53;;;2.80;;
37529;SDS011;23374;52.758;6.872;2023-03-19T05:05:53;4.67;;;2.83;;
37529;SDS011;23374;52.758;6.872;2023-03-19T05:08:16;3.87;;;2.90;;
37529;SDS011;23374;52.758;6.872;2023-03-19T05:10:38;5.33;;;3.33;;
37529;SDS011;23374;52.758;6.872;2023-03-19T05:12:59;5.40;;;2.87;;
37529;SDS011;23374;52.758;6.872;2023-03-19T05:15:19;3.53;;;2.73;;
37529;SDS011;23374;52.758;6.872;2023-03-19T05:17:40;5.20;;;2.73;;
37529;SDS011;23374;52.758;6.872;2023-03-19T05:20:01;5.47;;;3.00;;
37529;SDS011;23374;52.758;6.872;2023-03-19T05:22:23;4.30;;;3.13;;
37529;SDS011;23374;52.758;6.872;2023-03-19T05:24:44;3.83;;;2.60;;
37529;SDS011;23374;52.758;6.872;2023-03-19T05:27:04;3.67;;;2.77;;
37529;SDS011;23374;52.758;6.872;2023-03-19T05:29:26;3.77;;;2.80;;
37529;SDS011;23374;52.758;6.872;2023-03-19T05:31:52;4.30;;;2.97;;
37529;SDS011;23374;52.758;6.872;2023-03-19T05:34:18;5.00;;;3.17;;
37529;SDS011;23374;52.758;6.872;2023-03-19T05:36:39;4.93;;;3.07;;
37529;SDS011;23374;52.758;6.872;2023-03-19T05:39:00;5.37;;;3.27;;
37529;SDS011;23374;52.758;6.872;2023-03-19T05:41:21;4.27;;;3.07;;
37529;SDS011;23374;52.758;6.872;2023-03-19T05:43:42;5.80;;;3.47;;
37529;SDS011;23374;52.758;6.872;2023-03-19T05:46:02;4.70;;;3.03;;
37529;SDS011;23374;52.758;6.872;2023-03-19T05:48:24;3.70;;;3.23;;
37529;SDS011;23374;52.758;6.872;2023-03-19T05:50:45;4.80;;;2.83;;
37529;SDS011;23374;52.758;6.872;2023-03-19T05:53:05;6.00;;;3.33;;
37529;SDS011;23374;52.758;6.872;2023-03-19T05:55:26;4.93;;;3.47;;
37529;SDS011;23374;52.758;6.872;2023-03-19T05:57:46;5.80;;;3.57;;
37529;SDS011;23374;52.758;6.872;2023-03-19T06:00:08;5.63;;;3.13;;
37529;SDS011;23374;52.758;6.872;2023-03-19T06:02:29;5.13;;;3.33;;
37529;SDS011;23374;52.758;6.872;2023-03-19T06:04:50;5.63;;;3.17;;
37529;SDS011;23374;52.758;6.872;2023-03-19T06:07:11;3.90;;;2.90;;
37529;SDS011;23374;52.758;6.872;2023-03-19T06:09:31;6.00;;;3.63;;
37529;SDS011;23374;52.758;6.872;2023-03-19T06:11:52;5.53;;;3.43;;
37529;SDS011;23374;52.758;6.872;2023-03-19T06:14:12;4.87;;;3.20;;
37529;SDS011;23374;52.758;6.872;2023-03-19T06:16:33;4.17;;;3.30;;
37529;SDS011;23374;52.758;6.872;2023-03-19T06:18:53;5.33;;;3.50;;
37529;SDS011;23374;52.758;6.872;2023-03-19T06:21:14;6.30;;;3.20;;
37529;SDS011;23374;52.758;6.872;2023-03-19T06:23:35;6.50;;;3.60;;
37529;SDS011;23374;52.758;6.872;2023-03-19T06:25:56;6.20;;;3.70;;
37529;SDS011;23374;52.758;6.872;2023-03-19T06:28:16;6.57;;;3.63;;
37529;SDS011;23374;52.758;6.872;2023-03-19T06:30:37;9.47;;;4.30;;
37529;SDS011;23374;52.758;6.872;2023-03-19T06:32:57;5.47;;;3.50;;
37529;SDS011;23374;52.758;6.872;2023-03-19T06:35:18;6.37;;;3.43;;
37529;SDS011;23374;52.758;6.872;2023-03-19T06:37:38;5.97;;;3.63;;
37529;SDS011;23374;52.758;6.872;2023-03-19T06:39:59;8.53;;;4.10;;
37529;SDS011;23374;52.758;6.872;2023-03-19T06:42:20;5.67;;;3.70;;
37529;SDS011;23374;52.758;6.872;2023-03-19T06:44:42;6.30;;;4.00;;
37529;SDS011;23374;52.758;6.872;2023-03-19T06:47:02;5.23;;;3.70;;
37529;SDS011;23374;52.758;6.872;2023-03-19T06:49:23;6.30;;;3.57;;
37529;SDS011;23374;52.758;6.872;2023-03-19T06:51:44;6.83;;;4.07;;
37529;SDS011;23374;52.758;6.872;2023-03-19T06:54:04;7.70;;;4.50;;
37529;SDS011;23374;52.758;6.872;2023-03-19T06:56:25;10.33;;;4.43;;
37529;SDS011;23374;52.758;6.872;2023-03-19T06:58:50;8.20;;;4.40;;
37529;SDS011;23374;52.758;6.872;2023-03-19T07:01:11;7.33;;;4.30;;
37529;SDS011;23374;52.758;6.872;2023-03-19T07:03:31;6.60;;;4.10;;
37529;SDS011;23374;52.758;6.872;2023-03-19T07:05:52;5.80;;;3.77;;
37529;SDS011;23374;52.758;6.872;2023-03-19T07:08:12;5.97;;;3.60;;
37529;SDS011;23374;52.758;6.872;2023-03-19T07:10:32;6.53;;;4.50;;
37529;SDS011;23374;52.758;6.872;2023-03-19T07:12:53;6.73;;;4.60;;
37529;SDS011;23374;52.758;6.872;2023-03-19T07:15:14;6.17;;;4.47;;
37529;SDS011;23374;52.758;6.872;2023-03-19T07:17:36;7.03;;;4.23;;
37529;SDS011;23374;52.758;6.872;2023-03-19T07:19:57;6.50;;;4.20;;
37529;SDS011;23374;52.758;6.872;2023-03-19T07:22:17;11.07;;;4.77;;
37529;SDS011;23374;52.758;6.872;2023-03-19T07:24:38;8.43;;;4.17;;
37529;SDS011;23374;52.758;6.872;2023-03-19T07:26:59;5.97;;;4.13;;
37529;SDS011;23374;52.758;6.872;2023-03-19T07:29:20;6.17;;;4.60;;
37529;SDS011;23374;52.758;6.872;2023-03-19T07:31:49;6.67;;;4.67;;
37529;SDS011;23374;52.758;6.872;2023-03-19T07:34:10;9.20;;;5.10;;
37529;SDS011;23374;52.758;6.872;2023-03-19T07:36:30;9.50;;;5.37;;
37529;SDS011;23374;52.758;6.872;2023-03-19T07:38:52;9.80;;;5.40;;
37529;SDS011;23374;52.758;6.872;2023-03-19T07:41:12;11.20;;;5.73;;
37529;SDS011;23374;52.758;6.872;2023-03-19T07:43:33;9.67;;;6.20;;
37529;SDS011;23374;52.758;6.872;2023-03-19T07:45:56;11.77;;;6.70;;
37529;SDS011;23374;52.758;6.872;2023-03-19T07:48:17;10.20;;;6.47;;
37529;SDS011;23374;52.758;6.872;2023-03-19T07:50:38;11.07;;;6.10;;
37529;SDS011;23374;52.758;6.872;2023-03-19T07:52:58;10.00;;;5.93;;
37529;SDS011;23374;52.758;6.872;2023-03-19T07:55:19;9.83;;;6.17;;
37529;SDS011;23374;52.758;6.872;2023-03-19T07:57:40;13.43;;;7.23;;
37529;SDS011;23374;52.758;6.872;2023-03-19T08:00:00;11.97;;;7.03;;
37529;SDS011;23374;52.758;6.872;2023-03-19T08:02:21;12.83;;;7.07;;
37529;SDS011;23374;52.758;6.872;2023-03-19T08:04:41;12.73;;;7.00;;
37529;SDS011;23374;52.758;6.872;2023-03-19T08:07:02;10.87;;;6.93;;
37529;SDS011;23374;52.758;6.872;2023-03-19T08:09:22;13.13;;;7.67;;
37529;SDS011;23374;52.758;6.872;2023-03-19T08:11:43;13.50;;;7.27;;
37529;SDS011;23374;52.758;6.872;2023-03-19T08:14:00;13.33;;;7.33;;
37529;SDS011;23374;52.758;6.872;2023-03-19T08:16:21;15.17;;;7.63;;
37529;SDS011;23374;52.758;6.872;2023-03-19T08:18:41;12.17;;;6.57;;
37529;SDS011;23374;52.758;6.872;2023-03-19T08:21:02;13.13;;;7.47;;
37529;SDS011;23374;52.758;6.872;2023-03-19T08:23:23;11.63;;;6.87;;
37529;SDS011;23374;52.758;6.872;2023-03-19T08:25:44;13.50;;;7.43;;
37529;SDS011;23374;52.758;6.872;2023-03-19T08:28:04;12.73;;;6.40;;
37529;SDS011;23374;52.758;6.872;2023-03-19T08:30:25;11.57;;;6.97;;
37529;SDS011;23374;52.758;6.872;2023-03-19T08:32:46;12.30;;;7.00;;
37529;SDS011;23374;52.758;6.872;2023-03-19T08:35:08;13.63;;;7.37;;
37529;SDS011;23374;52.758;6.872;2023-03-19T08:37:29;10.73;;;6.10;;
37529;SDS011;23374;52.758;6.872;2023-03-19T08:39:50;13.63;;;6.80;;
37529;SDS011;23374;52.758;6.872;2023-03-19T08:42:12;11.33;;;6.50;;
37529;SDS011;23374;52.758;6.872;2023-03-19T08:44:33;11.60;;;6.07;;
37529;SDS011;23374;52.758;6.872;2023-03-19T08:46:53;10.43;;;6.20;;
37529;SDS011;23374;52.758;6.872;2023-03-19T08:49:13;14.37;;;6.80;;
37529;SDS011;23374;52.758;6.872;2023-03-19T08:51:34;11.50;;;6.80;;
37529;SDS011;23374;52.758;6.872;2023-03-19T08:53:55;11.83;;;7.07;;
37529;SDS011;23374;52.758;6.872;2023-03-19T08:56:16;11.97;;;6.20;;
37529;SDS011;23374;52.758;6.872;2023-03-19T08:58:36;10.90;;;6.50;;
37529;SDS011;23374;52.758;6.872;2023-03-19T09:01:06;11.57;;;6.67;;
37529;SDS011;23374;52.758;6.872;2023-03-19T09:03:31;10.00;;;6.27;;
37529;SDS011;23374;52.758;6.872;2023-03-19T09:05:52;10.47;;;6.27;;
37529;SDS011;23374;52.758;6.872;2023-03-19T09:08:12;13.40;;;6.60;;
37529;SDS011;23374;52.758;6.872;2023-03-19T09:10:32;12.27;;;6.60;;
37529;SDS011;23374;52.758;6.872;2023-03-19T09:12:54;8.80;;;5.87;;
37529;SDS011;23374;52.758;6.872;2023-03-19T09:15:15;8.93;;;5.27;;
37529;SDS011;23374;52.758;6.872;2023-03-19T09:17:36;8.33;;;5.37;;
37529;SDS011;23374;52.758;6.872;2023-03-19T09:19:59;12.20;;;6.23;;
37529;SDS011;23374;52.758;6.872;2023-03-19T09:22:20;8.67;;;5.17;;
37529;SDS011;23374;52.758;6.872;2023-03-19T09:24:41;11.77;;;6.13;;
37529;SDS011;23374;52.758;6.872;2023-03-19T09:27:08;12.97;;;6.70;;
37529;SDS011;23374;52.758;6.872;2023-03-19T09:29:29;9.70;;;5.93;;
37529;SDS011;23374;52.758;6.872;2023-03-19T09:31:50;9.90;;;5.97;;
37529;SDS011;23374;52.758;6.872;2023-03-19T09:34:11;10.60;;;5.93;;
37529;SDS011;23374;52.758;6.872;2023-03-19T09:36:32;9.97;;;5.77;;
37529;SDS011;23374;52.758;6.872;2023-03-19T09:38:53;10.83;;;6.13;;
37529;SDS011;23374;52.758;6.872;2023-03-19T09:45:00;12.70;;;6.17;;
37529;SDS011;23374;52.758;6.872;2023-03-19T09:47:41;11.07;;;6.30;;
37529;SDS011;23374;52.758;6.872;2023-03-19T09:53:48;13.60;;;6.93;;
37529;SDS011;23374;52.758;6.872;2023-03-19T09:58:13;11.37;;;5.90;;
37529;SDS011;23374;52.758;6.872;2023-03-19T10:00:39;9.00;;;5.87;;
37529;SDS011;23374;52.758;6.872;2023-03-19T10:10:59;12.43;;;6.47;;
37529;SDS011;23374;52.758;6.872;2023-03-19T10:15:34;9.57;;;5.63;;
37529;SDS011;23374;52.758;6.872;2023-03-19T10:18:18;9.00;;;5.40;;
37529;SDS011;23374;52.758;6.872;2023-03-19T10:22:07;9.07;;;5.27;;
37529;SDS011;23374;52.758;6.872;2023-03-19T10:24:42;9.67;;;5.80;;
37529;SDS011;23374;52.758;6.872;2023-03-19T10:27:13;9.63;;;5.70;;
37529;SDS011;23374;52.758;6.872;2023-03-19T10:29:36;9.40;;;4.47;;
37529;SDS011;23374;52.758;6.872;2023-03-19T10:35:26;9.67;;;5.90;;
37529;SDS011;23374;52.758;6.872;2023-03-19T10:38:15;8.57;;;4.80;;
37529;SDS011;23374;52.758;6.872;2023-03-19T10:45:45;11.80;;;5.63;;
37529;SDS011;23374;52.758;6.872;2023-03-19T10:48:13;10.23;;;5.70;;
37529;SDS011;23374;52.758;6.872;2023-03-19T10:51:00;8.77;;;5.47;;
37529;SDS011;23374;52.758;6.872;2023-03-19T10:53:36;9.10;;;5.00;;
37529;SDS011;23374;52.758;6.872;2023-03-19T10:56:22;8.40;;;4.87;;
37529;SDS011;23374;52.758;6.872;2023-03-19T10:59:02;9.97;;;5.53;;
37529;SDS011;23374;52.758;6.872;2023-03-19T11:01:47;10.87;;;6.07;;
37529;SDS011;23374;52.758;6.872;2023-03-19T11:06:52;9.40;;;5.97;;
37529;SDS011;23374;52.758;6.872;2023-03-19T11:09:34;11.33;;;6.23;;
37529;SDS011;23374;52.758;6.872;2023-03-19T11:11:57;11.33;;;6.23;;
37529;SDS011;23374;52.758;6.872;2023-03-19T11:17:49;9.40;;;5.57;;
37529;SDS011;23374;52.758;6.872;2023-03-19T11:20:22;12.33;;;5.73;;
37529;SDS011;23374;52.758;6.872;2023-03-19T11:22:50;10.07;;;5.60;;
37529;SDS011;23374;52.758;6.872;2023-03-19T11:25:17;8.07;;;5.23;;
37529;SDS011;23374;52.758;6.872;2023-03-19T11:28:08;8.63;;;5.40;;
37529;SDS011;23374;52.758;6.872;2023-03-19T11:30:40;9.50;;;5.60;;
37529;SDS011;23374;52.758;6.872;2023-03-19T11:35:24;11.53;;;6.17;;
37529;SDS011;23374;52.758;6.872;2023-03-19T11:37:55;8.47;;;5.30;;
37529;SDS011;23374;52.758;6.872;2023-03-19T11:41:18;10.57;;;5.77;;
37529;SDS011;23374;52.758;6.872;2023-03-19T11:45:17;11.97;;;6.53;;
37529;SDS011;23374;52.758;6.872;2023-03-19T11:49:41;10.80;;;6.00;;
37529;SDS011;23374;52.758;6.872;2023-03-19T11:55:49;12.70;;;6.20;;
37529;SDS011;23374;52.758;6.872;2023-03-19T12:01:34;12.33;;;7.17;;
37529;SDS011;23374;52.758;6.872;2023-03-19T12:16:55;11.73;;;6.93;;
37529;SDS011;23374;52.758;6.872;2023-03-19T12:20:18;13.43;;;7.60;;
37529;SDS011;23374;52.758;6.872;2023-03-19T12:24:57;10.30;;;6.60;;
37529;SDS011;23374;52.758;6.872;2023-03-19T12:28:02;12.77;;;6.57;;
37529;SDS011;23374;52.758;6.872;2023-03-19T12:31:31;9.30;;;5.27;;
37529;SDS011;23374;52.758;6.872;2023-03-19T12:34:45;9.70;;;5.50;;
37529;SDS011;23374;52.758;6.872;2023-03-19T12:37:40;13.43;;;6.43;;
37529;SDS011;23374;52.758;6.872;2023-03-19T12:41:57;11.77;;;6.07;;
37529;SDS011;23374;52.758;6.872;2023-03-19T12:44:25;12.70;;;6.57;;
37529;SDS011;23374;52.758;6.872;2023-03-19T12:50:03;12.23;;;6.50;;
37529;SDS011;23374;52.758;6.872;2023-03-19T12:52:37;17.07;;;7.37;;
37529;SDS011;23374;52.758;6.872;2023-03-19T12:55:37;11.80;;;6.50;;
37529;SDS011;23374;52.758;6.872;2023-03-19T12:58:20;12.50;;;6.70;;
37529;SDS011;23374;52.758;6.872;2023-03-19T13:01:10;13.23;;;7.03;;
37529;SDS011;23374;52.758;6.872;2023-03-19T13:04:37;13.03;;;6.63;;
37529;SDS011;23374;52.758;6.872;2023-03-19T13:11:48;14.43;;;7.50;;
37529;SDS011;23374;52.758;6.872;2023-03-19T13:21:22;11.43;;;6.73;;
37529;SDS011;23374;52.758;6.872;2023-03-19T13:24:26;10.63;;;6.27;;
37529;SDS011;23374;52.758;6.872;2023-03-19T13:26:49;10.53;;;6.50;;
37529;SDS011;23374;52.758;6.872;2023-03-19T13:29:18;11.07;;;6.40;;
37529;SDS011;23374;52.758;6.872;2023-03-19T13:31:50;10.63;;;6.20;;
37529;SDS011;23374;52.758;6.872;2023-03-19T13:34:21;10.43;;;6.03;;
37529;SDS011;23374;52.758;6.872;2023-03-19T13:36:53;9.67;;;5.90;;
37529;SDS011;23374;52.758;6.872;2023-03-19T13:39:32;13.03;;;6.10;;
37529;SDS011;23374;52.758;6.872;2023-03-19T13:42:07;13.23;;;6.17;;
37529;SDS011;23374;52.758;6.872;2023-03-19T13:44:53;12.63;;;6.33;;
37529;SDS011;23374;52.758;6.872;2023-03-19T13:47:48;11.17;;;5.53;;
37529;SDS011;23374;52.758;6.872;2023-03-19T13:50:24;11.47;;;6.33;;
37529;SDS011;23374;52.758;6.872;2023-03-19T13:52:51;10.73;;;5.13;;
37529;SDS011;23374;52.758;6.872;2023-03-19T13:55:31;10.07;;;4.80;;
37529;SDS011;23374;52.758;6.872;2023-03-19T13:58:24;7.67;;;4.33;;
37529;SDS011;23374;52.758;6.872;2023-03-19T14:01:08;6.60;;;4.00;;
37529;SDS011;23374;52.758;6.872;2023-03-19T14:03:34;8.03;;;4.30;;
37529;SDS011;23374;52.758;6.872;2023-03-19T14:05:58;7.93;;;4.30;;
37529;SDS011;23374;52.758;6.872;2023-03-19T14:08:24;10.80;;;5.07;;
37529;SDS011;23374;52.758;6.872;2023-03-19T14:10:48;8.40;;;5.30;;
37529;SDS011;23374;52.758;6.872;2023-03-19T14:13:36;9.60;;;5.87;;
37529;SDS011;23374;52.758;6.872;2023-03-19T14:16:40;11.00;;;5.70;;
37529;SDS011;23374;52.758;6.872;2023-03-19T14:19:03;10.73;;;5.70;;
37529;SDS011;23374;52.758;6.872;2023-03-19T14:21:41;9.23;;;5.57;;
37529;SDS011;23374;52.758;6.872;2023-03-19T14:24:34;9.50;;;5.03;;
37529;SDS011;23374;52.758;6.872;2023-03-19T14:27:13;11.63;;;5.63;;
37529;SDS011;23374;52.758;6.872;2023-03-19T14:29:41;11.83;;;6.27;;
37529;SDS011;23374;52.758;6.872;2023-03-19T14:32:06;9.43;;;6.37;;
37529;SDS011;23374;52.758;6.872;2023-03-19T14:34:39;9.97;;;5.67;;
37529;SDS011;23374;52.758;6.872;2023-03-19T14:37:22;9.97;;;5.47;;
37529;SDS011;23374;52.758;6.872;2023-03-19T14:40:19;12.30;;;5.70;;
37529;SDS011;23374;52.758;6.872;2023-03-19T14:43:07;11.50;;;6.00;;
37529;SDS011;23374;52.758;6.872;2023-03-19T14:52:19;10.40;;;5.73;;
37529;SDS011;23374;52.758;6.872;2023-03-19T14:54:55;14.00;;;7.27;;
37529;SDS011;23374;52.758;6.872;2023-03-19T14:57:25;11.43;;;6.13;;
37529;SDS011;23374;52.758;6.872;2023-03-19T14:59:52;12.67;;;7.10;;
37529;SDS011;23374;52.758;6.872;2023-03-19T15:03:00;12.33;;;6.30;;
37529;SDS011;23374;52.758;6.872;2023-03-19T15:05:29;13.37;;;6.30;;
37529;SDS011;23374;52.758;6.872;2023-03-19T15:08:03;12.20;;;7.10;;
37529;SDS011;23374;52.758;6.872;2023-03-19T15:10:28;13.10;;;7.47;;
37529;SDS011;23374;52.758;6.872;2023-03-19T15:17:34;14.60;;;7.87;;
37529;SDS011;23374;52.758;6.872;2023-03-19T15:19:59;13.97;;;7.60;;
37529;SDS011;23374;52.758;6.872;2023-03-19T15:22:32;15.40;;;7.30;;
37529;SDS011;23374;52.758;6.872;2023-03-19T15:25:04;15.00;;;7.93;;
37529;SDS011;23374;52.758;6.872;2023-03-19T15:27:32;17.67;;;7.47;;
37529;SDS011;23374;52.758;6.872;2023-03-19T15:29:53;15.47;;;7.63;;
37529;SDS011;23374;52.758;6.872;2023-03-19T15:32:39;14.70;;;7.70;;
37529;SDS011;23374;52.758;6.872;2023-03-19T15:35:02;11.57;;;6.60;;
37529;SDS011;23374;52.758;6.872;2023-03-19T15:37:23;16.73;;;7.37;;
37529;SDS011;23374;52.758;6.872;2023-03-19T15:39:48;12.40;;;7.37;;
37529;SDS011;23374;52.758;6.872;2023-03-19T15:42:13;12.03;;;7.03;;
37529;SDS011;23374;52.758;6.872;2023-03-19T15:44:45;15.90;;;8.00;;
37529;SDS011;23374;52.758;6.872;2023-03-19T15:47:25;14.00;;;7.47;;
37529;SDS011;23374;52.758;6.872;2023-03-19T15:49:56;15.93;;;8.23;;
37529;SDS011;23374;52.758;6.872;2023-03-19T15:52:24;17.00;;;9.07;;
37529;SDS011;23374;52.758;6.872;2023-03-19T15:54:50;16.17;;;8.03;;
37529;SDS011;23374;52.758;6.872;2023-03-19T15:57:13;16.77;;;8.63;;
37529;SDS011;23374;52.758;6.872;2023-03-19T15:59:52;17.33;;;8.80;;
37529;SDS011;23374;52.758;6.872;2023-03-19T16:02:32;16.90;;;8.03;;
37529;SDS011;23374;52.758;6.872;2023-03-19T16:04:54;17.30;;;7.83;;
37529;SDS011;23374;52.758;6.872;2023-03-19T16:07:34;18.67;;;8.00;;
37529;SDS011;23374;52.758;6.872;2023-03-19T16:10:41;22.73;;;8.53;;
37529;SDS011;23374;52.758;6.872;2023-03-19T16:13:27;14.33;;;7.13;;
37529;SDS011;23374;52.758;6.872;2023-03-19T16:16:04;14.13;;;6.60;;